createdAt,value
2018-06-04T00:00:16.541Z,978.46
2018-06-04T00:01:26.287Z,978.44
2018-06-04T00:02:35.506Z,978.44
2018-06-04T00:03:45.522Z,978.42
2018-06-04T00:04:55.544Z,978.45
2018-06-04T00:06:05.568Z,978.45
2018-06-04T00:07:14.782Z,978.44
2018-06-04T00:08:24.798Z,978.45
2018-06-04T00:09:34.825Z,978.44
2018-06-04T00:10:44.834Z,978.48
2018-06-04T00:11:54.047Z,978.45
2018-06-04T00:13:04.112Z,978.46
2018-06-04T00:14:13.867Z,978.5
2018-06-04T00:15:23.889Z,978.49
2018-06-04T00:16:33.956Z,978.52
2018-06-04T00:17:43.170Z,978.52
2018-06-04T00:18:53.192Z,978.51
2018-06-04T00:20:02.946Z,978.53
2018-06-04T00:21:12.704Z,978.56
2018-06-04T00:22:22.728Z,978.59
2018-06-04T00:23:32.747Z,978.57
2018-06-04T00:24:42.775Z,978.54
2018-06-04T00:25:52.800Z,978.58
2018-06-04T00:27:02.809Z,978.58
2018-06-04T00:28:12.830Z,978.59
2018-06-04T00:29:22.852Z,978.6
2018-06-04T00:30:32.910Z,978.62
2018-06-04T00:31:42.922Z,978.65
2018-06-04T00:32:52.686Z,978.62
2018-06-04T00:34:02.439Z,978.66
2018-06-04T00:35:12.345Z,978.68
2018-06-04T00:36:22.422Z,978.64
2018-06-04T00:37:32.176Z,978.64
2018-06-04T00:38:42.190Z,978.65
2018-06-04T00:39:51.665Z,978.67
2018-06-04T00:41:01.247Z,978.62
2018-06-04T00:42:11.004Z,978.63
2018-06-04T00:43:21.021Z,978.66
2018-06-04T00:44:30.765Z,978.7
2018-06-04T00:45:40.781Z,978.71
2018-06-04T00:46:50.539Z,978.69
2018-06-04T00:48:00.281Z,978.7
2018-06-04T00:49:10.026Z,978.77
2018-06-04T00:50:20.040Z,978.77
2018-06-04T00:51:30.069Z,978.74
2018-06-04T00:52:39.876Z,978.78
2018-06-04T00:53:49.893Z,978.82
2018-06-04T00:54:59.911Z,978.85
2018-06-04T00:56:09.660Z,978.82
2018-06-04T00:57:19.680Z,978.79
2018-06-04T00:58:29.482Z,978.85
2018-06-04T00:59:39.231Z,978.84
2018-06-04T01:00:48.986Z,978.85
2018-06-04T01:01:58.472Z,978.86
2018-06-04T01:03:08.223Z,978.82
2018-06-04T01:04:17.982Z,978.78
2018-06-04T01:05:27.734Z,978.8
2018-06-04T01:06:37.754Z,978.75
2018-06-04T01:07:47.503Z,978.74
2018-06-04T01:08:57.248Z,978.7
2018-06-04T01:10:06.727Z,978.72
2018-06-04T01:11:16.736Z,978.69
2018-06-04T01:12:26.480Z,978.69
2018-06-04T01:13:36.500Z,978.72
2018-06-04T01:14:46.523Z,978.73
2018-06-04T01:15:55.735Z,978.73
2018-06-04T01:17:05.491Z,978.7
2018-06-04T01:18:14.969Z,978.66
2018-06-04T01:19:24.448Z,978.69
2018-06-04T01:20:34.207Z,978.69
2018-06-04T01:21:44.223Z,978.7
2018-06-04T01:22:54.242Z,978.73
2018-06-04T01:24:04.255Z,978.73
2018-06-04T01:25:14.000Z,978.71
2018-06-04T01:26:23.794Z,978.73
2018-06-04T01:27:33.543Z,978.77
2018-06-04T01:28:43.558Z,978.76
2018-06-04T01:29:53.580Z,978.77
2018-06-04T01:31:03.602Z,978.77
2018-06-04T01:32:13.363Z,978.78
2018-06-04T01:33:22.843Z,978.72
2018-06-04T01:34:32.861Z,978.75
2018-06-04T01:35:42.877Z,978.76
2018-06-04T01:36:52.896Z,978.72
2018-06-04T01:38:02.919Z,978.72
2018-06-04T01:39:12.933Z,978.73
2018-06-04T01:40:22.689Z,978.73
2018-06-04T01:41:32.170Z,978.75
2018-06-04T01:42:41.925Z,978.75
2018-06-04T01:43:51.672Z,978.77
2018-06-04T01:45:01.447Z,978.77
2018-06-04T01:46:10.929Z,978.83
2018-06-04T01:47:20.946Z,978.86
2018-06-04T01:48:30.688Z,978.85
2018-06-04T01:49:40.429Z,978.87
2018-06-04T01:50:50.182Z,978.9
2018-06-04T01:51:59.931Z,978.92
2018-06-04T01:53:09.679Z,978.96
2018-06-04T01:54:19.723Z,979.02
2018-06-04T01:55:29.476Z,979.01
2018-06-04T01:56:39.500Z,979.03
2018-06-04T01:57:49.519Z,979.04
2018-06-04T01:58:59.535Z,979.01
2018-06-04T02:00:08.749Z,979.03
2018-06-04T02:01:18.773Z,979.05
2018-06-04T02:02:28.784Z,979.04
2018-06-04T02:03:38.844Z,979.05
2018-06-04T02:04:48.854Z,979.09
2018-06-04T02:05:58.607Z,979.07
2018-06-04T02:07:07.821Z,979.08
2018-06-04T02:08:17.988Z,979.08
2018-06-04T02:09:27.998Z,979.08
2018-06-04T02:10:38.009Z,979.12
2018-06-04T02:11:48.024Z,979.16
2018-06-04T02:12:58.039Z,979.13
2018-06-04T02:14:08.058Z,979.18
2018-06-04T02:15:17.804Z,979.12
2018-06-04T02:16:27.546Z,979.17
2018-06-04T02:17:37.292Z,979.16
2018-06-04T02:18:46.511Z,979.19
2018-06-04T02:19:56.528Z,979.21
2018-06-04T02:21:06.546Z,979.22
2018-06-04T02:22:16.561Z,979.22
2018-06-04T02:23:26.320Z,979.22
2018-06-04T02:24:36.381Z,979.28
2018-06-04T02:25:46.394Z,979.24
2018-06-04T02:26:55.604Z,979.23
2018-06-04T02:28:05.642Z,979.21
2018-06-04T02:29:15.716Z,979.22
2018-06-04T02:30:25.783Z,979.24
2018-06-04T02:31:35.526Z,979.25
2018-06-04T02:32:44.732Z,979.22
2018-06-04T02:33:54.757Z,979.24
2018-06-04T02:35:04.506Z,979.26
2018-06-04T02:36:14.265Z,979.25
2018-06-04T02:37:24.290Z,979.25
2018-06-04T02:38:34.051Z,979.31
2018-06-04T02:39:43.277Z,979.32
2018-06-04T02:40:52.768Z,979.27
2018-06-04T02:42:02.530Z,979.31
2018-06-04T02:43:12.277Z,979.31
2018-06-04T02:44:22.041Z,979.31
2018-06-04T02:45:31.529Z,979.33
2018-06-04T02:46:41.280Z,979.39
2018-06-04T02:47:51.319Z,979.38
2018-06-04T02:49:01.073Z,979.37
2018-06-04T02:50:11.240Z,979.41
2018-06-04T02:51:21.349Z,979.44
2018-06-04T02:52:31.382Z,979.45
2018-06-04T02:53:41.406Z,979.45
2018-06-04T02:54:50.953Z,979.43
2018-06-04T02:56:00.998Z,979.47
2018-06-04T02:57:10.480Z,979.4
2018-06-04T02:58:20.251Z,979.44
2018-06-04T02:59:30.286Z,979.47
2018-06-04T03:03:26.123Z,979.48
2018-06-04T03:04:36.151Z,979.46
2018-06-04T03:05:46.179Z,979.48
2018-06-04T03:06:55.667Z,979.47
2018-06-04T03:08:05.424Z,979.54
2018-06-04T03:09:14.657Z,979.51
2018-06-04T03:10:24.405Z,979.51
2018-06-04T03:11:34.438Z,979.52
2018-06-04T03:12:44.204Z,979.52
2018-06-04T03:13:54.250Z,979.57
2018-06-04T03:15:04.266Z,979.57
2018-06-04T03:16:14.289Z,979.55
2018-06-04T03:17:23.499Z,979.55
2018-06-04T03:18:33.244Z,979.57
2018-06-04T03:19:42.988Z,979.57
2018-06-04T03:20:53.115Z,979.51
2018-06-04T03:22:02.860Z,979.57
2018-06-04T03:23:12.601Z,979.61
2018-06-04T03:24:22.347Z,979.64
2018-06-04T03:25:31.297Z,979.64
2018-06-04T03:26:40.774Z,979.68
2018-06-04T03:27:50.780Z,979.65
2018-06-04T03:29:00.521Z,979.75
2018-06-04T03:30:10.538Z,979.76
2018-06-04T03:31:20.076Z,979.75
2018-06-04T03:32:29.295Z,979.78
2018-06-04T03:33:38.512Z,979.79
2018-06-04T03:34:48.559Z,979.76
2018-06-04T03:35:58.149Z,979.82
2018-06-04T03:37:07.913Z,979.82
2018-06-04T03:38:18.046Z,979.89
2018-06-04T03:39:28.061Z,979.86
2018-06-04T03:40:37.813Z,979.89
2018-06-04T03:41:47.555Z,979.86
2018-06-04T03:42:57.568Z,979.86
2018-06-04T03:44:07.314Z,979.87
2018-06-04T03:45:17.054Z,979.89
2018-06-04T03:46:26.796Z,979.89
2018-06-04T03:47:36.551Z,979.89
2018-06-04T03:48:46.564Z,979.91
2018-06-04T03:49:55.781Z,979.95
2018-06-04T03:51:05.281Z,979.96
2018-06-04T03:52:15.043Z,979.91
2018-06-04T03:53:24.514Z,979.9
2018-06-04T03:54:34.262Z,979.92
2018-06-04T03:55:44.292Z,979.9
2018-06-04T03:56:54.311Z,979.92
2018-06-04T03:58:04.326Z,979.93
2018-06-04T03:59:14.337Z,979.94
2018-06-04T04:00:24.350Z,979.96
2018-06-04T04:01:34.376Z,979.95
2018-06-04T04:02:44.185Z,980
2018-06-04T04:03:54.045Z,980.03
2018-06-04T04:05:03.259Z,980.06
2018-06-04T04:06:13.015Z,980.04
2018-06-04T04:07:23.033Z,980.04
2018-06-04T04:08:33.047Z,980.1
2018-06-04T04:09:42.793Z,980.03
2018-06-04T04:10:52.806Z,980.02
2018-06-04T04:12:02.557Z,979.98
2018-06-04T04:13:12.038Z,979.98
2018-06-04T04:14:21.789Z,979.99
2018-06-04T04:15:31.811Z,980.01
2018-06-04T04:16:41.555Z,980.04
2018-06-04T04:17:51.569Z,979.98
2018-06-04T04:19:01.581Z,980.03
2018-06-04T04:20:11.608Z,980.08
2018-06-04T04:21:20.822Z,980.09
2018-06-04T04:22:30.568Z,980.13
2018-06-04T04:23:40.056Z,980.12
2018-06-04T04:24:49.802Z,980.09
2018-06-04T04:25:59.547Z,980.11
2018-06-04T04:27:09.577Z,980.14
2018-06-04T04:28:19.597Z,980.16
2018-06-04T04:29:29.386Z,980.12
2018-06-04T04:30:39.133Z,980.16
2018-06-04T04:31:49.148Z,980.13
2018-06-04T04:32:59.170Z,980.13
2018-06-04T04:34:08.932Z,980.13
2018-06-04T04:35:18.675Z,980.13
2018-06-04T04:36:28.696Z,980.16
2018-06-04T04:37:38.175Z,980.18
2018-06-04T04:38:48.428Z,980.21
2018-06-04T04:39:58.182Z,980.24
2018-06-04T04:41:07.664Z,980.27
2018-06-04T04:42:17.775Z,980.27
2018-06-04T04:43:27.520Z,980.32
2018-06-04T04:44:37.268Z,980.39
2018-06-04T04:45:47.290Z,980.39
2018-06-04T04:46:56.773Z,980.39
2018-06-04T04:48:06.518Z,980.4
2018-06-04T04:49:16.263Z,980.41
2018-06-04T04:50:25.759Z,980.37
2018-06-04T04:51:35.555Z,980.38
2018-06-04T04:52:45.624Z,980.43
2018-06-04T04:53:55.649Z,980.44
2018-06-04T04:55:05.665Z,980.43
2018-06-04T04:56:15.677Z,980.44
2018-06-04T04:57:25.183Z,980.46
2018-06-04T04:58:35.192Z,980.47
2018-06-04T04:59:45.309Z,980.52
2018-06-04T05:00:54.809Z,980.54
2018-06-04T05:02:04.828Z,980.51
2018-06-04T05:03:14.044Z,980.54
2018-06-04T05:04:23.798Z,980.57
2018-06-04T05:05:33.815Z,980.58
2018-06-04T05:06:43.836Z,980.64
2018-06-04T05:07:53.880Z,980.61
2018-06-04T05:09:03.916Z,980.63
2018-06-04T05:10:13.663Z,980.59
2018-06-04T05:11:23.724Z,980.63
2018-06-04T05:12:32.940Z,980.64
2018-06-04T05:13:42.956Z,980.66
2018-06-04T05:14:52.969Z,980.69
2018-06-04T05:16:02.175Z,980.68
2018-06-04T05:17:12.191Z,980.7
2018-06-04T05:18:21.941Z,980.66
2018-06-04T05:19:31.979Z,980.6
2018-06-04T05:20:41.729Z,980.68
2018-06-04T05:21:51.741Z,980.68
2018-06-04T05:23:01.223Z,980.67
2018-06-04T05:24:10.970Z,980.7
2018-06-04T05:25:20.987Z,980.74
2018-06-04T05:26:31.020Z,980.71
2018-06-04T05:27:41.196Z,980.76
2018-06-04T05:28:50.942Z,980.78
2018-06-04T05:30:00.691Z,980.81
2018-06-04T05:31:10.717Z,980.8
2018-06-04T05:32:20.195Z,980.86
2018-06-04T05:33:29.942Z,980.84
2018-06-04T05:34:39.952Z,980.82
2018-06-04T05:35:50.000Z,980.81
2018-06-04T05:37:00.060Z,980.75
2018-06-04T05:38:10.205Z,980.79
2018-06-04T05:39:20.236Z,980.76
2018-06-04T05:40:29.983Z,980.69
2018-06-04T05:41:39.733Z,980.75
2018-06-04T05:42:49.751Z,980.73
2018-06-04T05:43:59.774Z,980.75
2018-06-04T05:45:09.264Z,980.7
2018-06-04T05:46:19.022Z,980.72
2018-06-04T05:47:29.032Z,980.73
2018-06-04T05:48:38.806Z,980.7
2018-06-04T05:49:48.568Z,980.76
2018-06-04T05:50:58.398Z,980.72
2018-06-04T05:52:08.426Z,980.68
2018-06-04T05:53:18.503Z,980.69
2018-06-04T05:54:28.512Z,980.64
2018-06-04T05:55:38.264Z,980.66
2018-06-04T05:56:48.279Z,980.63
2018-06-04T05:57:58.021Z,980.68
2018-06-04T05:59:08.035Z,980.69
2018-06-04T06:00:17.246Z,980.71
2018-06-04T06:01:27.268Z,980.66
2018-06-04T06:02:37.306Z,980.64
2018-06-04T06:03:47.358Z,980.66
2018-06-04T06:04:56.838Z,980.65
2018-06-04T06:06:06.327Z,980.65
2018-06-04T06:07:16.080Z,980.66
2018-06-04T06:08:26.117Z,980.67
2018-06-04T06:09:36.228Z,980.66
2018-06-04T06:10:46.022Z,980.65
2018-06-04T06:11:55.504Z,980.69
2018-06-04T06:13:04.986Z,980.67
2018-06-04T06:14:14.760Z,980.72
2018-06-04T06:15:24.513Z,980.71
2018-06-04T06:16:34.261Z,980.69
2018-06-04T06:17:44.009Z,980.71
2018-06-04T06:18:54.022Z,980.66
2018-06-04T06:20:04.038Z,980.68
2018-06-04T06:21:13.524Z,980.7
2018-06-04T06:22:22.739Z,980.68
2018-06-04T06:23:32.771Z,980.73
2018-06-04T06:24:42.518Z,980.69
2018-06-04T06:25:52.263Z,980.71
2018-06-04T06:27:01.741Z,980.72
2018-06-04T06:28:11.223Z,980.72
2018-06-04T06:29:21.249Z,980.73
2018-06-04T06:30:30.465Z,980.73
2018-06-04T06:31:39.954Z,980.76
2018-06-04T06:32:49.964Z,980.75
2018-06-04T06:33:59.460Z,980.75
2018-06-04T06:35:09.483Z,980.77
2018-06-04T06:36:18.965Z,980.72
2018-06-04T06:37:28.717Z,980.72
2018-06-04T06:38:38.953Z,980.77
2018-06-04T06:39:48.977Z,980.75
2018-06-04T06:40:58.717Z,980.75
2018-06-04T06:42:08.744Z,980.75
2018-06-04T06:43:18.824Z,980.74
2018-06-04T06:44:28.836Z,980.79
2018-06-04T06:45:38.850Z,980.72
2018-06-04T06:46:48.627Z,980.74
2018-06-04T06:47:58.716Z,980.75
2018-06-04T06:49:08.494Z,980.69
2018-06-04T06:50:18.522Z,980.75
2018-06-04T06:51:28.537Z,980.71
2018-06-04T06:52:38.284Z,980.73
2018-06-04T06:53:48.037Z,980.75
2018-06-04T06:54:57.786Z,980.73
2018-06-04T06:56:07.535Z,980.73
2018-06-04T06:57:17.551Z,980.77
2018-06-04T06:58:27.030Z,980.73
2018-06-04T06:59:37.084Z,980.71
2018-06-04T07:00:46.030Z,980.72
2018-06-04T07:01:56.177Z,980.72
2018-06-04T07:03:06.480Z,980.78
2018-06-04T07:04:15.968Z,980.78
2018-06-04T07:05:25.986Z,980.7
2018-06-04T07:06:36.009Z,980.75
2018-06-04T07:07:45.767Z,980.74
2018-06-04T07:08:55.250Z,980.77
2018-06-04T07:10:05.003Z,980.77
2018-06-04T07:11:14.789Z,980.83
2018-06-04T07:12:24.802Z,980.84
2018-06-04T07:13:34.816Z,980.8
2018-06-04T07:14:44.563Z,980.84
2018-06-04T07:15:54.313Z,980.88
2018-06-04T07:17:04.061Z,980.88
2018-06-04T07:18:14.087Z,980.9
2018-06-04T07:19:23.616Z,980.92
2018-06-04T07:20:33.367Z,980.91
2018-06-04T07:21:43.387Z,980.89
2018-06-04T07:22:53.145Z,980.91
2018-06-04T07:24:03.160Z,980.94
2018-06-04T07:25:12.744Z,980.95
2018-06-04T07:26:22.753Z,980.96
2018-06-04T07:27:32.502Z,980.97
2018-06-04T07:28:42.513Z,981.05
2018-06-04T07:29:52.534Z,980.98
2018-06-04T07:31:02.546Z,981.01
2018-06-04T07:32:12.557Z,980.94
2018-06-04T07:33:22.578Z,981
2018-06-04T07:34:32.333Z,981.01
2018-06-04T07:35:42.344Z,981
2018-06-04T07:36:51.562Z,981
2018-06-04T07:38:01.310Z,981.01
2018-06-04T07:39:10.522Z,981.01
2018-06-04T07:40:20.562Z,981.02
2018-06-04T07:41:30.306Z,981
2018-06-04T07:42:40.325Z,981
2018-06-04T07:43:49.811Z,980.96
2018-06-04T07:44:59.556Z,980.95
2018-06-04T07:46:08.772Z,980.92
2018-06-04T07:47:18.538Z,980.89
2018-06-04T07:48:28.302Z,980.93
2018-06-04T07:49:38.325Z,980.91
2018-06-04T07:50:48.401Z,980.9
2018-06-04T07:51:58.151Z,980.92
2018-06-04T07:53:08.170Z,980.95
2018-06-04T07:54:17.922Z,980.93
2018-06-04T07:55:27.671Z,980.93
2018-06-04T07:56:37.450Z,980.94
2018-06-04T07:57:47.468Z,980.98
2018-06-04T07:58:57.213Z,980.95
2018-06-04T08:00:07.246Z,980.97
2018-06-04T08:01:17.271Z,980.97
2018-06-04T08:02:27.299Z,980.95
2018-06-04T08:03:37.322Z,980.92
2018-06-04T08:04:47.071Z,980.97
2018-06-04T08:05:56.823Z,980.91
2018-06-04T08:07:06.836Z,980.95
2018-06-04T08:08:16.849Z,980.98
2018-06-04T08:09:26.872Z,981
2018-06-04T08:10:36.893Z,981
2018-06-04T08:11:46.909Z,981.03
2018-06-04T08:12:56.786Z,981.05
2018-06-04T08:14:06.828Z,981.08
2018-06-04T08:15:16.586Z,981.03
2018-06-04T08:16:26.332Z,981.02
2018-06-04T08:17:36.360Z,981.06
2018-06-04T08:18:46.124Z,981
2018-06-04T08:19:55.666Z,981.02
2018-06-04T08:21:05.434Z,980.98
2018-06-04T08:22:15.182Z,980.95
2018-06-04T08:23:25.194Z,980.94
2018-06-04T08:24:35.223Z,980.94
2018-06-04T08:25:45.240Z,980.96
2018-06-04T08:26:54.725Z,980.93
2018-06-04T08:28:03.937Z,980.91
2018-06-04T08:29:13.570Z,980.89
2018-06-04T08:30:23.860Z,980.88
2018-06-04T08:31:33.349Z,980.86
2018-06-04T08:32:43.107Z,980.86
2018-06-04T08:33:53.126Z,980.88
2018-06-04T08:35:03.140Z,980.89
2018-06-04T08:36:12.624Z,980.9
2018-06-04T08:37:22.652Z,980.89
2018-06-04T08:38:32.728Z,980.96
2018-06-04T08:39:42.776Z,981.02
2018-06-04T08:40:52.266Z,980.98
2018-06-04T08:42:02.291Z,981
2018-06-04T08:43:11.776Z,980.99
2018-06-04T08:44:21.524Z,980.94
2018-06-04T08:45:31.572Z,980.91
2018-06-04T08:46:41.776Z,980.91
2018-06-04T08:47:51.534Z,980.91
2018-06-04T08:49:01.285Z,980.89
2018-06-04T08:50:10.771Z,980.87
2018-06-04T08:51:20.799Z,980.91
2018-06-04T08:52:30.821Z,980.85
2018-06-04T08:53:40.837Z,980.85
2018-06-04T08:54:50.602Z,980.84
2018-06-04T08:56:00.555Z,980.86
2018-06-04T08:57:10.314Z,980.92
2018-06-04T08:58:20.074Z,980.87
2018-06-04T08:59:29.831Z,980.94
2018-06-04T09:00:39.847Z,980.91
2018-06-04T09:01:49.606Z,980.93
2018-06-04T09:02:59.646Z,980.9
2018-06-04T09:04:09.133Z,980.91
2018-06-04T09:05:18.615Z,980.9
2018-06-04T09:06:27.837Z,980.86
2018-06-04T09:07:37.584Z,980.83
2018-06-04T09:08:47.347Z,980.83
2018-06-04T09:09:57.370Z,980.78
2018-06-04T09:11:07.394Z,980.84
2018-06-04T09:12:16.883Z,980.8
2018-06-04T09:13:26.636Z,980.84
2018-06-04T09:14:36.118Z,980.84
2018-06-04T09:15:45.764Z,980.85
2018-06-04T09:16:55.807Z,980.85
2018-06-04T09:18:05.829Z,980.86
2018-06-04T09:19:15.579Z,980.85
2018-06-04T09:20:25.333Z,980.83
2018-06-04T09:21:35.099Z,980.87
2018-06-04T09:22:44.964Z,980.86
2018-06-04T09:23:54.440Z,980.86
2018-06-04T09:25:05.303Z,980.84
2018-06-04T09:26:15.508Z,980.88
2018-06-04T09:27:25.526Z,980.84
2018-06-04T09:28:35.272Z,980.82
2018-06-04T09:29:45.292Z,980.82
2018-06-04T09:30:55.313Z,980.79
2018-06-04T09:32:05.067Z,980.81
2018-06-04T09:33:14.554Z,980.76
2018-06-04T09:34:24.040Z,980.76
2018-06-04T09:35:33.796Z,980.74
2018-06-04T09:36:43.823Z,980.73
2018-06-04T09:37:53.847Z,980.67
2018-06-04T09:39:03.075Z,980.66
2018-06-04T09:40:12.561Z,980.63
2018-06-04T09:41:22.586Z,980.65
2018-06-04T09:42:32.075Z,980.59
2018-06-04T09:43:42.163Z,980.59
2018-06-04T09:44:51.641Z,980.66
2018-06-04T09:46:01.397Z,980.68
2018-06-04T09:47:11.160Z,980.66
2018-06-04T09:48:21.182Z,980.67
2018-06-04T09:49:30.930Z,980.65
2018-06-04T09:50:40.781Z,980.65
2018-06-04T09:51:50.533Z,980.67
2018-06-04T09:53:00.296Z,980.63
2018-06-04T09:54:10.338Z,980.64
2018-06-04T09:55:20.179Z,980.63
2018-06-04T09:56:30.217Z,980.64
2018-06-04T09:57:39.966Z,980.58
2018-06-04T09:58:49.448Z,980.61
2018-06-04T09:59:59.207Z,980.66
2018-06-04T10:01:08.979Z,980.61
2018-06-04T10:02:18.729Z,980.6
2018-06-04T10:03:28.749Z,980.6
2018-06-04T10:04:38.255Z,980.58
2018-06-04T10:05:47.914Z,980.59
2018-06-04T10:06:57.667Z,980.6
2018-06-04T10:08:07.414Z,980.54
2018-06-04T10:09:16.895Z,980.58
2018-06-04T10:10:26.929Z,980.57
2018-06-04T10:11:36.950Z,980.54
2018-06-04T10:12:46.166Z,980.54
2018-06-04T10:13:56.240Z,980.55
2018-06-04T10:15:06.266Z,980.54
2018-06-04T10:16:16.287Z,980.56
2018-06-04T10:17:26.048Z,980.55
2018-06-04T10:18:36.086Z,980.56
2018-06-04T10:19:45.934Z,980.52
2018-06-04T10:20:55.422Z,980.56
2018-06-04T10:22:05.446Z,980.56
2018-06-04T10:23:15.197Z,980.54
2018-06-04T10:24:24.683Z,980.55
2018-06-04T10:25:34.436Z,980.51
2018-06-04T10:26:44.184Z,980.53
2018-06-04T10:27:54.259Z,980.53
2018-06-04T10:29:03.825Z,980.53
2018-06-04T10:30:13.042Z,980.52
2018-06-04T10:31:23.271Z,980.51
2018-06-04T10:32:33.535Z,980.52
2018-06-04T10:33:43.092Z,980.44
2018-06-04T10:34:53.312Z,980.48
2018-06-04T10:36:03.332Z,980.46
2018-06-04T10:37:13.795Z,980.47
2018-06-04T10:38:24.244Z,980.46
2018-06-04T10:39:34.276Z,980.48
2018-06-04T10:40:44.290Z,980.45
2018-06-04T10:41:54.330Z,980.44
2018-06-04T10:43:04.084Z,980.41
2018-06-04T10:44:13.844Z,980.38
2018-06-04T10:45:23.064Z,980.38
2018-06-04T10:46:32.834Z,980.4
2018-06-04T10:47:42.889Z,980.38
2018-06-04T10:48:52.662Z,980.41
2018-06-04T10:50:02.425Z,980.39
2018-06-04T10:51:12.442Z,980.42
2018-06-04T10:52:22.461Z,980.43
2018-06-04T10:53:31.678Z,980.46
2018-06-04T10:54:42.634Z,980.45
2018-06-04T10:55:53.780Z,980.44
2018-06-04T10:57:03.825Z,980.4
2018-06-04T10:58:13.587Z,980.43
2018-06-04T10:59:23.626Z,980.44
2018-06-04T11:00:33.854Z,980.46
2018-06-04T11:01:44.322Z,980.41
2018-06-04T11:02:54.275Z,980.42
2018-06-04T11:04:05.900Z,980.39
2018-06-04T11:05:15.385Z,980.4
2018-06-04T11:06:24.977Z,980.36
2018-06-04T11:07:34.970Z,980.35
2018-06-04T11:08:45.044Z,980.33
2018-06-04T11:09:54.860Z,980.35
2018-06-04T11:11:04.341Z,980.35
2018-06-04T11:12:14.346Z,980.33
2018-06-04T11:13:24.428Z,980.33
2018-06-04T11:14:34.870Z,980.32
2018-06-04T11:15:45.154Z,980.34
2018-06-04T11:16:55.392Z,980.36
2018-06-04T11:18:04.934Z,980.34
2018-06-04T11:19:14.959Z,980.32
2018-06-04T11:20:24.843Z,980.27
